LRBCLUKK

Guest
Details From LRBC - BACAU
To LUKK - Chisinau Intl
Flight Number -
Tags generated
Created
Modified
Stats Distance 87 nm / 161 km
Max Altitude 6,900 ft / 2,103 m
Waypoints 3
Social Downloads 0
Likes 0
Share VATSIM

Download

Looking for another format? Having issues loading an existing format? Contact us
Advertisement - Login to hide

Notes

Basic altitude profile: - Ascent Rate: 2500ft/min - Ascent Speed: 250kts - Cruise Altitude: 18000ft - Cruise Speed: 420kts - Descent Rate: 2000ft/min - Descent Speed: 200kts Options: - Use NATs: yes - Use PACOTS: yes - Use low airways: no - Use high airways: yes

Route

LRBC POGAV LUKK

ID Type Via Altitude Latitude Longitude Leg Dist Tot Dist Heading (true) Name
O LRBC APT - 0 ft / 0 m 46.52190˚ 26.91018˚ - 0 nm - BACAU
POGAV FIX - 6,900 ft / 2,103 m 46.78167˚ 28.16667˚ 54 nm 54 nm 73° / 74° -
O LUKK APT - 0 ft / 0 m 46.92779˚ 28.93092˚ 32 nm 86 nm 74° / 75° Chisinau Intl

Altitude Profile

Advertisement - Login to hide

LRBC

Details ICAO LRBC (BCM)
Name BACAU
Region Romania
Timezone Europe/Bucharest (UTC+2.0)
Stats Elevation 607 ft / 185 m (AMSL)
Location 46.521904° 26.910177°
Runways 1
Magnetic Variation 6.067° E

METAR

LRBC 120830Z 17013KT CAVOK 05/02 Q1011

Decode

TAF

Not found

Departure Runways

ID Width Length Bearing (true) Bearing (mag) Surface Threshold Offset Overrun Length
16 262 ft / 80 m 8,166 ft / 2,489 m 164.87° 158.80° Concrete 0 ft / 0 m 0 ft / 0 m
34 262 ft / 80 m 8,166 ft / 2,489 m 344.87° 338.80° Concrete 0 ft / 0 m 0 ft / 0 m

LUKK

Details ICAO LUKK (KIV)
Name Chisinau Intl
Region Moldova
Timezone Europe/Chisinau (UTC+2.0)
Stats Elevation 399 ft / 122 m (AMSL)
Location 46.927793° 28.930923°
Runways 1
Magnetic Variation 6.488° E

METAR

LUKK 120830Z 19006KT CAVOK 06/01 Q1012 R26/120095 NOSIG

Decode

TAF

TAF TAF LUKK 120520Z 1206/1306 20008KT CAVOK BECMG 1216/1218 4100 BR BKN010 PROB40 TEMPO 1222/1306 0300 FG VV///

Decode

Destination Runways

ID Width Length Bearing (true) Bearing (mag) Surface Threshold Offset Overrun Length
08 145 ft / 44 m 11,747 ft / 3,581 m 88.29° 81.80° Concrete 200 ft / 61 m 165 ft / 50 m
26 145 ft / 44 m 11,747 ft / 3,581 m 268.32° 261.83° Concrete 200 ft / 61 m 165 ft / 50 m

Approach Navaids

Runway Type Ident Frequency Range Bearing (true) Bearing (mag) Slope Elevation
08 Localiser IRG 110.30 MHz 18 nm / 33 km 88.33° 81.84° - 399 ft / 122 m (AMSL)
08 Glidescope IRG 110.30 MHz 10 nm / 19 km 88.31° 81.82° 3.00° 399 ft / 122 m (AMSL)
08 DME IRG 110.30 MHz 18 nm / 33 km - - - 397 ft / 121 m (AMSL)
26 Localiser ILD 109.90 MHz 18 nm / 33 km 268.29° 261.80° - 399 ft / 122 m (AMSL)
26 Glidescope ILD 109.90 MHz 10 nm / 19 km 268.31° 261.82° 3.00° 399 ft / 122 m (AMSL)
26 DME ILD 109.90 MHz 18 nm / 33 km - - - 286 ft / 87 m (AMSL)